Time;durP1;ratioP1;P1;durP2;ratioP2;P2;SDS_P1;SDS_P2;PMS_P1;PMS_P2;Temp;Humidity;BMP_temperature;BMP_pressure;BME280_temperature;BME280_humidity;BME280_pressure;Samples;Min_cycle;Max_cycle;Signal;HPM_P1;HPM_P2
2022/10/15 00:01:24;;;;;;;;;8.75;8.75;;;;;16.57;81.74;100366.75;4996604;28;45408;-64
2022/10/15 00:03:50;;;;;;;;;11.20;9.00;;;;;16.59;81.61;100363.72;4996336;28;45169;-64
2022/10/15 00:06:18;;;;;;;;;9.25;6.25;;;;;16.59;81.94;100361.78;4996202;28;45830;-64
2022/10/15 00:08:43;;;;;;;;;6.80;6.80;;;;;16.47;81.64;100339.78;4995947;28;45372;-64
2022/10/15 00:11:20;;;;;;;;;8.50;8.50;;;;;16.61;81.97;100361.53;4995226;28;45484;-64
2022/10/15 00:13:45;;;;;;;;;9.40;8.60;;;;;16.61;81.90;100362.38;4996098;28;45461;-64
2022/10/15 00:16:14;;;;;;;;;7.75;7.75;;;;;16.63;81.83;100370.41;4989817;28;45613;-64
2022/10/15 00:18:40;;;;;;;;;7.60;7.60;;;;;16.59;82.42;100358.19;4980552;28;45387;-64
2022/10/15 00:21:06;;;;;;;;;7.50;7.50;;;;;16.55;82.22;100363.41;4996045;28;45334;-64
2022/10/15 00:23:32;;;;;;;;;7.60;7.60;;;;;16.57;82.52;100368.69;4996283;28;45532;-65
2022/10/15 00:26:08;;;;;;;;;5.75;5.75;;;;;16.22;82.60;100309.91;4995576;28;46326;-64
2022/10/15 00:28:34;;;;;;;;;9.20;7.60;;;;;16.57;82.64;100357.59;4994717;28;45425;-64
2022/10/15 00:31:04;;;;;;;;;8.75;8.75;;;;;16.58;82.73;100360.13;4995436;28;45497;-64
2022/10/15 00:33:29;;;;;;;;;6.20;6.20;;;;;16.24;82.57;100300.22;4995939;28;45414;-64
2022/10/15 00:36:15;;;;;;;;;7.00;7.00;;;;;16.57;82.75;100341.81;4995084;28;46851;-65
2022/10/15 00:38:41;;;;;;;;;7.60;6.00;;;;;16.44;83.01;100323.69;4994445;28;45437;-64
2022/10/15 00:41:07;;;;;;;;;6.25;6.00;;;;;16.26;83.19;100305.50;4995198;28;45249;-64
2022/10/15 00:43:43;;;;;;;;;7.80;7.80;;;;;16.34;83.20;100318.06;4978034;28;45477;-64
2022/10/15 00:46:39;;;;;;;;;9.20;7.00;;;;;16.48;83.21;100330.38;4994771;28;46443;-64
2022/10/15 00:49:17;;;;;;;;;6.00;5.80;;;;;16.45;83.41;100343.91;4995172;28;45505;-64
2022/10/15 00:51:53;;;;;;;;;7.20;6.20;;;;;16.48;83.27;100340.59;4994519;28;45446;-62
2022/10/15 00:54:18;;;;;;;;;6.60;5.80;;;;;16.44;83.10;100331.97;4995853;28;45383;-63
2022/10/15 00:56:44;;;;;;;;;9.75;8.50;;;;;16.52;83.04;100339.84;4977283;28;45477;-63
2022/10/15 00:59:10;;;;;;;;;5.00;5.00;;;;;16.21;83.12;100280.53;4993755;28;45379;-63
2022/10/15 01:01:35;;;;;;;;;7.25;6.25;;;;;16.27;83.11;100293.31;4995513;28;45335;-63
2022/10/15 01:04:01;;;;;;;;;6.00;6.00;;;;;16.47;83.38;100323.16;4977856;28;45312;-63
2022/10/15 01:06:26;;;;;;;;;7.00;6.25;;;;;16.38;83.33;100297.03;4993520;28;45651;-62
2022/10/15 01:08:52;;;;;;;;;7.75;6.75;;;;;16.49;83.73;100318.19;4994107;28;45303;-63
2022/10/15 01:11:36;;;;;;;;;5.25;5.25;;;;;16.25;83.49;100301.06;4993575;28;45267;-63
2022/10/15 01:14:29;;;;;;;;;7.00;5.20;;;;;16.47;83.86;100319.56;4979041;28;45359;-63
2022/10/15 01:17:31;;;;;;;;;6.20;5.20;;;;;16.46;83.56;100307.66;4995472;28;46235;-63
2022/10/15 01:20:15;;;;;;;;;6.60;5.00;;;;;16.33;83.84;100278.44;4982646;28;45467;-63
2022/10/15 01:23:09;;;;;;;;;5.00;5.00;;;;;16.45;83.62;100296.84;4995118;28;45487;-63
2022/10/15 01:25:59;;;;;;;;;3.20;2.60;;;;;15.87;83.45;100204.03;4989796;28;45403;-63
2022/10/15 01:28:42;;;;;;;;;2.00;2.00;;;;;16.44;83.73;100295.16;4994854;28;46664;-63
2022/10/15 01:31:36;;;;;;;;;5.20;4.40;;;;;16.39;84.00;100291.22;4977921;28;45527;-63
2022/10/15 01:34:15;;;;;;;;;4.00;4.00;;;;;16.28;83.95;100261.78;4990106;28;45462;-63
2022/10/15 01:36:52;;;;;;;;;4.40;3.40;;;;;16.38;84.14;100272.94;4994023;28;45341;-63
2022/10/15 01:39:25;;;;;;;;;4.00;4.00;;;;;16.03;84.04;100212.53;4995007;28;46005;-63
2022/10/15 01:41:55;;;;;;;;;3.80;3.80;;;;;16.35;84.27;100265.19;4981959;28;45494;-63
2022/10/15 01:44:36;;;;;;;;;6.00;5.00;;;;;16.12;84.13;100222.88;4966192;28;45473;-63
2022/10/15 01:47:06;;;;;;;;;2.40;1.20;;;;;16.34;84.29;100259.91;4957961;28;45316;-63
2022/10/15 01:49:35;;;;;;;;;3.20;3.20;;;;;16.32;84.40;100251.03;4990069;28;45467;-63
2022/10/15 01:52:03;;;;;;;;;5.60;5.60;;;;;16.29;84.47;100255.16;4974361;28;45451;-63
2022/10/15 01:54:29;;;;;;;;;7.00;6.00;;;;;16.08;84.63;100220.88;4973514;28;45355;-62
2022/10/15 01:56:54;;;;;;;;;5.75;5.75;;;;;16.22;84.75;100249.81;4974317;28;45533;-63
2022/10/15 01:59:25;;;;;;;;;5.25;4.50;;;;;16.08;84.94;100213.44;4973895;28;46143;-63
2022/10/15 02:01:50;;;;;;;;;4.00;4.00;;;;;16.26;84.79;100230.75;4990107;28;45356;-62
2022/10/15 02:04:23;;;;;;;;;5.25;4.75;;;;;16.27;85.00;100221.34;4973965;28;45244;-63
2022/10/15 02:07:09;;;;;;;;;4.60;4.60;;;;;16.23;85.03;100225.75;4991702;28;45387;-64
2022/10/15 02:09:45;;;;;;;;;4.00;4.00;;;;;16.21;84.98;100234.31;4976720;28;45759;-62
2022/10/15 02:12:13;;;;;;;;;4.80;4.80;;;;;16.24;85.04;100210.78;4993550;28;45413;-62
2022/10/15 02:14:53;;;;;;;;;5.00;5.00;;;;;16.21;85.00;100197.47;4977865;28;45317;-63
2022/10/15 02:17:42;;;;;;;;;5.60;5.60;;;;;16.05;84.93;100169.66;4992623;28;45576;-63
2022/10/15 02:20:34;;;;;;;;;5.00;5.00;;;;;16.21;85.31;100201.09;4984412;28;45647;-63
2022/10/15 02:23:34;;;;;;;;;4.40;3.20;;;;;16.24;85.54;100196.97;4977145;28;45291;-63
2022/10/15 02:26:00;;;;;;;;;3.40;3.40;;;;;15.90;85.37;100128.81;4977759;28;45426;-63
2022/10/15 02:28:26;;;;;;;;;5.00;5.00;;;;;16.15;85.42;100162.53;4960810;28;45342;-64
2022/10/15 02:30:52;;;;;;;;;5.80;5.00;;;;;16.23;85.61;100170.38;4992527;28;45758;-64
2022/10/15 02:33:18;;;;;;;;;5.25;4.50;;;;;16.19;85.67;100158.16;4976735;28;45421;-64
2022/10/15 02:35:43;;;;;;;;;6.75;4.75;;;;;16.06;85.74;100132.56;4978026;28;45529;-64
2022/10/15 02:38:09;;;;;;;;;5.75;5.50;;;;;16.23;85.53;100153.75;4978281;28;45268;-64
2022/10/15 02:40:35;;;;;;;;;4.40;4.40;;;;;16.23;85.92;100143.50;4976489;28;45498;-64
2022/10/15 02:43:04;;;;;;;;;5.00;5.00;;;;;16.22;85.89;100135.47;4992946;28;45361;-64
2022/10/15 02:45:29;;;;;;;;;6.20;6.20;;;;;16.23;86.13;100137.16;4982636;28;48783;-64
2022/10/15 02:47:55;;;;;;;;;7.25;6.00;;;;;16.24;86.00;100130.50;4993082;28;45386;-64
2022/10/15 02:50:20;;;;;;;;;5.50;4.00;;;;;16.24;85.99;100127.75;4996428;28;46694;-64
2022/10/15 02:52:46;;;;;;;;;3.50;3.50;;;;;16.25;86.04;100137.72;4997458;28;45386;-64
2022/10/15 02:55:11;;;;;;;;;3.00;3.00;;;;;16.26;86.00;100125.53;4997267;28;45488;-64
2022/10/15 02:57:37;;;;;;;;;5.00;5.00;;;;;16.26;85.94;100125.53;4996206;28;45895;-64
2022/10/15 03:00:03;;;;;;;;;5.00;3.50;;;;;16.08;85.97;100101.88;4997082;28;46560;-64
2022/10/15 03:02:28;;;;;;;;;2.20;2.20;;;;;16.27;85.99;100121.66;4997204;28;45495;-64
2022/10/15 03:04:54;;;;;;;;;3.00;2.50;;;;;16.22;86.29;100111.38;4997403;28;45380;-64
2022/10/15 03:07:19;;;;;;;;;2.00;2.00;;;;;16.24;86.42;100116.66;4997486;28;45375;-64
2022/10/15 03:09:45;;;;;;;;;2.00;1.00;;;;;16.19;86.71;100105.53;4995761;28;46554;-63
2022/10/15 03:12:10;;;;;;;;;3.00;2.00;;;;;16.22;86.77;100107.81;4997185;28;45345;-65
2022/10/15 03:14:36;;;;;;;;;1.00;1.00;;;;;16.14;86.51;100084.19;4995948;28;45325;-64
2022/10/15 03:17:01;;;;;;;;;1.50;1.50;;;;;16.28;86.57;100100.34;4996728;28;45335;-64
2022/10/15 03:19:27;;;;;;;;;1.75;1.75;;;;;16.25;86.82;100082.34;4996215;28;45949;-64
2022/10/15 03:21:52;;;;;;;;;1.00;1.00;;;;;16.04;86.75;100048.13;4995714;28;45367;-64
2022/10/15 03:24:18;;;;;;;;;1.25;1.25;;;;;16.31;86.87;100085.97;4995557;28;45207;-64
2022/10/15 03:26:43;;;;;;;;;2.50;2.50;;;;;16.29;86.83;100077.09;4995657;28;45233;-64
2022/10/15 03:29:09;;;;;;;;;0.50;0.50;;;;;16.23;87.23;100067.94;4995464;28;45524;-64
2022/10/15 03:31:35;;;;;;;;;2.00;1.00;;;;;16.24;87.38;100061.28;4995332;28;45429;-64
2022/10/15 03:34:00;;;;;;;;;0.25;0.25;;;;;16.30;87.09;100064.91;4995578;28;45422;-64
2022/10/15 03:36:26;;;;;;;;;1.00;1.00;;;;;16.32;87.32;100065.50;4996498;28;45405;-64
2022/10/15 03:38:51;;;;;;;;;2.60;1.40;;;;;16.18;87.31;100046.59;4996479;28;46206;-64
2022/10/15 03:41:17;;;;;;;;;0.50;0.50;;;;;16.32;87.48;100071.03;4996100;28;45359;-63
2022/10/15 03:43:43;;;;;;;;;0.00;0.00;;;;;16.29;87.96;100061.34;4995302;28;45563;-62
2022/10/15 03:46:08;;;;;;;;;5.00;1.25;;;;;16.16;88.67;100037.69;4989064;28;45497;-62
2022/10/15 03:48:34;;;;;;;;;1.00;1.00;;;;;16.19;88.10;100039.09;4975320;28;46832;-63
2022/10/15 03:50:59;;;;;;;;;0.00;0.00;;;;;16.26;88.45;100056.31;4975308;28;45178;-63
2022/10/15 03:53:25;;;;;;;;;1.00;1.00;;;;;16.31;88.18;100052.72;4976678;28;45279;-63
2022/10/15 03:55:50;;;;;;;;;0.00;0.00;;;;;16.31;87.87;100053.59;4976960;28;45419;-63
2022/10/15 03:58:16;;;;;;;;;1.00;1.00;;;;;16.16;87.83;100017.50;4976328;28;45498;-63
2022/10/15 04:00:42;;;;;;;;;0.75;0.75;;;;;16.35;87.86;100043.66;4976480;28;45324;-63
2022/10/15 04:03:08;;;;;;;;;1.00;1.00;;;;;16.38;87.90;100042.25;4976569;28;45449;-63
2022/10/15 04:05:33;;;;;;;;;0.00;0.00;;;;;16.30;87.93;100021.47;4976453;28;45590;-63
2022/10/15 04:07:59;;;;;;;;;1.00;1.00;;;;;16.36;87.92;100022.31;4976299;28;45993;-64
2022/10/15 04:10:24;;;;;;;;;1.25;0.50;;;;;16.43;87.84;100045.06;4975990;28;45491;-63
2022/10/15 04:12:50;;;;;;;;;1.50;0.00;;;;;16.28;88.23;100006.22;4976750;28;45465;-64
2022/10/15 04:15:15;;;;;;;;;1.75;0.00;;;;;16.44;88.06;100024.56;4959037;28;45501;-64
2022/10/15 04:17:41;;;;;;;;;1.00;0.00;;;;;16.43;88.04;100019.31;4976106;28;45787;-63
2022/10/15 04:20:07;;;;;;;;;0.00;0.00;;;;;16.46;88.09;100025.16;4976104;28;45395;-64
2022/10/15 04:22:32;;;;;;;;;1.00;1.00;;;;;16.46;88.20;100025.16;4976050;28;45368;-64
2022/10/15 04:24:58;;;;;;;;;2.00;0.75;;;;;16.36;88.44;100012.09;4975407;28;45310;-64
2022/10/15 04:27:23;;;;;;;;;1.00;0.00;;;;;16.50;88.13;100017.13;4974785;28;45454;-64
2022/10/15 04:29:49;;;;;;;;;0.00;0.00;;;;;16.41;88.34;100016.81;4974304;28;45482;-64
2022/10/15 04:32:14;;;;;;;;;0.75;0.00;;;;;16.47;88.15;100010.19;4975413;28;45339;-64
2022/10/15 04:34:40;;;;;;;;;0.00;0.00;;;;;16.51;88.40;100014.09;4979356;28;45374;-64
2022/10/15 04:37:05;;;;;;;;;0.25;0.25;;;;;16.52;88.45;100013.00;4992829;28;46128;-64
2022/10/15 04:39:31;;;;;;;;;0.25;0.25;;;;;16.48;88.46;100008.25;4993414;28;45264;-62
2022/10/15 04:41:56;;;;;;;;;1.00;1.00;;;;;16.49;88.96;100004.41;4994639;28;45312;-65
2022/10/15 04:44:22;;;;;;;;;1.00;1.00;;;;;16.51;88.98;100013.25;4993921;28;45375;-63
2022/10/15 04:46:47;;;;;;;;;2.00;1.00;;;;;16.47;89.07;100006.56;4989785;28;45312;-63
2022/10/15 04:49:13;;;;;;;;;0.00;0.00;;;;;16.31;89.77;99987.13;4992928;28;45259;-64
2022/10/15 04:51:38;;;;;;;;;2.00;0.00;;;;;16.49;89.63;100021.81;4995365;28;45438;-64
2022/10/15 04:54:04;;;;;;;;;0.75;0.50;;;;;16.51;89.79;100025.19;4992950;28;45358;-63
2022/10/15 04:56:29;;;;;;;;;0.00;0.00;;;;;16.51;89.76;100021.56;4995838;28;46469;-63
2022/10/15 04:58:55;;;;;;;;;1.50;0.50;;;;;16.52;89.61;100032.38;4994207;28;45406;-63
2022/10/15 05:01:20;;;;;;;;;0.00;0.00;;;;;16.52;89.51;100029.63;4995743;28;45395;-63
2022/10/15 05:03:46;;;;;;;;;1.00;1.00;;;;;16.55;89.53;100044.03;4995634;28;45283;-63
2022/10/15 05:06:16;;;;;;;;;3.60;0.60;;;;;16.54;89.51;100040.41;4995440;28;46397;-63
2022/10/15 05:08:42;;;;;;;;;0.00;0.00;;;;;16.50;89.49;100030.97;4994181;28;45898;-63
2022/10/15 05:11:19;;;;;;;;;0.75;0.75;;;;;16.57;89.54;100047.34;4977588;28;45387;-63
2022/10/15 05:13:44;;;;;;;;;0.00;0.00;;;;;16.61;89.22;100037.41;4995768;28;45474;-63
2022/10/15 05:16:14;;;;;;;;;0.00;0.00;;;;;16.43;89.25;100013.78;4993872;28;45779;-63
2022/10/15 05:18:40;;;;;;;;;1.00;0.60;;;;;16.59;89.15;100037.66;4994065;28;45471;-63
2022/10/15 05:21:06;;;;;;;;;0.60;0.60;;;;;16.63;89.33;100044.34;4994995;28;45361;-63
2022/10/15 05:23:32;;;;;;;;;0.25;0.25;;;;;16.64;89.28;100036.84;4995860;28;45247;-63
2022/10/15 05:26:01;;;;;;;;;1.50;0.00;;;;;16.62;89.14;100037.13;4994836;28;46385;-63
2022/10/15 05:28:26;;;;;;;;;0.40;0.40;;;;;16.65;89.25;100042.13;4994018;28;45438;-65
2022/10/15 05:30:52;;;;;;;;;1.00;1.00;;;;;16.62;89.19;100039.91;4995159;28;45383;-63
2022/10/15 05:33:17;;;;;;;;;0.00;0.00;;;;;16.72;89.12;100038.28;4995157;28;45547;-63
2022/10/15 05:35:43;;;;;;;;;0.50;0.50;;;;;16.71;89.03;100044.94;4995144;28;45459;-63
2022/10/15 05:38:08;;;;;;;;;0.00;0.00;;;;;16.71;89.09;100044.94;4993477;28;45557;-63
2022/10/15 05:40:34;;;;;;;;;0.00;0.00;;;;;16.72;89.12;100044.66;4967732;28;45532;-63
2022/10/15 05:42:59;;;;;;;;;1.00;1.00;;;;;16.73;89.02;100040.78;4995165;28;45645;-62
2022/10/15 05:45:24;;;;;;;;;1.00;1.00;;;;;16.74;89.02;100036.91;4998265;28;46496;-63
2022/10/15 05:47:59;;;;;;;;;1.00;1.00;;;;;16.73;88.65;100038.00;4980721;28;45336;-63
2022/10/15 05:50:24;;;;;;;;;0.20;0.20;;;;;16.75;89.21;100044.09;4998538;28;45362;-63
2022/10/15 05:52:50;;;;;;;;;0.00;0.00;;;;;16.61;89.02;100027.16;4997380;28;45352;-63
2022/10/15 05:55:15;;;;;;;;;0.25;0.25;;;;;16.76;88.89;100031.09;4998108;28;46360;-63
2022/10/15 05:57:41;;;;;;;;;1.25;1.25;;;;;16.77;89.18;100035.53;4996829;28;45340;-63
2022/10/15 06:00:07;;;;;;;;;1.50;0.75;;;;;16.75;89.17;100032.22;4998190;28;45141;-63
2022/10/15 06:02:33;;;;;;;;;0.40;0.40;;;;;16.75;89.17;100034.97;4998321;28;45553;-63
2022/10/15 06:04:58;;;;;;;;;0.00;0.00;;;;;16.60;89.13;100005.28;4998221;28;46607;-63
2022/10/15 06:07:24;;;;;;;;;2.00;2.00;;;;;16.79;89.01;100036.94;4997887;28;45422;-63
2022/10/15 06:09:49;;;;;;;;;0.50;0.50;;;;;16.61;89.04;100002.25;4998445;28;45291;-63
2022/10/15 06:12:15;;;;;;;;;1.00;1.00;;;;;16.25;88.87;99952.22;4997960;28;45367;-63
2022/10/15 06:14:40;;;;;;;;;2.50;1.75;;;;;16.64;89.14;100015.53;4998165;28;45550;-63
2022/10/15 06:17:06;;;;;;;;;0.75;0.75;;;;;16.79;89.04;100036.09;4996656;28;45396;-63
2022/10/15 06:19:31;;;;;;;;;1.75;1.00;;;;;16.79;89.30;100038.84;4998199;28;45442;-63
2022/10/15 06:21:57;;;;;;;;;3.75;2.00;;;;;16.19;89.46;99939.44;4996835;28;45417;-64
2022/10/15 06:24:22;;;;;;;;;1.00;1.00;;;;;16.79;89.42;100042.47;4996376;28;46283;-62
2022/10/15 06:26:48;;;;;;;;;0.00;0.00;;;;;16.81;89.30;100044.94;4997850;28;45366;-64
2022/10/15 06:29:13;;;;;;;;;0.50;0.00;;;;;16.79;89.63;100045.25;4998025;28;45402;-63
2022/10/15 06:31:39;;;;;;;;;1.00;1.00;;;;;16.80;89.63;100048.84;4998194;28;45352;-64
2022/10/15 06:34:04;;;;;;;;;1.25;1.25;;;;;16.59;89.77;100009.97;4997840;28;46321;-64
2022/10/15 06:36:30;;;;;;;;;1.00;1.00;;;;;16.80;89.57;100046.06;4996341;28;45450;-64
2022/10/15 06:38:55;;;;;;;;;0.75;0.75;;;;;16.78;89.91;100051.06;4996671;28;45424;-64
2022/10/15 06:41:21;;;;;;;;;0.25;0.25;;;;;16.71;90.05;100034.66;4997934;28;45565;-64
2022/10/15 06:43:49;;;;;;;;;1.00;1.00;;;;;16.77;90.01;100052.16;4997680;28;46459;-64
2022/10/15 06:46:15;;;;;;;;;0.00;0.00;;;;;16.77;89.98;100043.84;4993682;28;45407;-64
2022/10/15 06:48:40;;;;;;;;;0.00;0.00;;;;;16.75;90.31;100051.59;4978101;28;45353;-66
2022/10/15 06:51:06;;;;;;;;;0.00;0.00;;;;;16.77;90.56;100050.19;4978274;28;45352;-64
2022/10/15 06:53:31;;;;;;;;;0.00;0.00;;;;;16.51;90.46;100010.47;4977275;28;46280;-62
2022/10/15 06:56:01;;;;;;;;;0.25;0.25;;;;;16.77;90.49;100044.66;4976726;28;45415;-62
2022/10/15 06:58:26;;;;;;;;;1.00;1.00;;;;;16.77;90.58;100044.66;4969031;28;45428;-62
2022/10/15 07:00:52;;;;;;;;;0.00;0.00;;;;;16.84;90.21;100058.28;4997371;28;45356;-64
2022/10/15 07:03:17;;;;;;;;;0.25;0.00;;;;;16.84;90.34;100065.75;4979263;28;45351;-67
2022/10/15 07:05:43;;;;;;;;;2.50;1.00;;;;;16.86;90.50;100066.34;4995781;28;45749;-64
2022/10/15 07:08:08;;;;;;;;;2.75;2.00;;;;;16.86;90.25;100058.84;4997376;28;45305;-66
2022/10/15 07:10:34;;;;;;;;;2.00;0.00;;;;;16.67;90.20;100022.47;4979134;28;45324;-65
2022/10/15 07:13:00;;;;;;;;;1.00;1.00;;;;;16.91;90.23;100066.34;4995627;28;46463;-63
2022/10/15 07:15:26;;;;;;;;;1.25;1.25;;;;;16.93;90.09;100062.19;4997094;28;45477;-64
2022/10/15 07:17:55;;;;;;;;;2.00;1.00;;;;;16.73;89.98;100038.00;4995563;28;45407;-64
2022/10/15 07:20:21;;;;;;;;;0.00;0.00;;;;;16.93;90.02;100069.69;4997717;28;45477;-63
2022/10/15 07:22:47;;;;;;;;;0.00;0.00;;;;;16.94;89.91;100069.41;4996208;28;45414;-66
2022/10/15 07:25:13;;;;;;;;;1.00;1.00;;;;;17.01;89.78;100074.69;4997443;28;45382;-64
2022/10/15 07:27:38;;;;;;;;;0.25;0.25;;;;;16.90;89.83;100056.34;4996862;28;45361;-63
2022/10/15 07:30:05;;;;;;;;;1.00;0.00;;;;;17.05;89.85;100077.78;4995695;28;45339;-63
2022/10/15 07:32:30;;;;;;;;;1.00;1.00;;;;;17.09;89.88;100080.84;4996684;28;46805;-63
2022/10/15 07:34:56;;;;;;;;;0.75;0.75;;;;;17.09;89.46;100081.69;4996540;28;45351;-64
2022/10/15 07:37:21;;;;;;;;;1.00;1.00;;;;;17.15;89.27;100079.75;4997162;28;45315;-64
2022/10/15 07:39:47;;;;;;;;;1.00;1.00;;;;;17.17;89.27;100085.84;4995452;28;45516;-65
2022/10/15 07:42:12;;;;;;;;;1.00;1.00;;;;;17.18;89.57;100091.13;4995377;28;46055;-65
2022/10/15 07:44:38;;;;;;;;;0.75;0.00;;;;;17.18;89.58;100099.47;4996673;28;45425;-64
2022/10/15 07:47:03;;;;;;;;;0.50;0.00;;;;;17.02;89.74;100067.25;4989516;28;45307;-64
2022/10/15 07:49:29;;;;;;;;;0.00;0.00;;;;;17.19;89.61;100115.00;4976298;28;45454;-64
2022/10/15 07:51:54;;;;;;;;;0.00;0.00;;;;;17.18;89.68;100099.47;4985580;28;45522;-64
2022/10/15 07:54:20;;;;;;;;;0.00;0.00;;;;;17.16;90.15;100107.22;4963633;28;45465;-67
2022/10/15 07:56:46;;;;;;;;;0.00;0.00;;;;;17.19;90.02;100115.00;4984251;28;45816;-66
2022/10/15 07:59:11;;;;;;;;;1.00;1.00;;;;;17.11;90.35;100104.44;4935443;28;45414;-67
2022/10/15 08:01:37;;;;;;;;;2.25;2.25;;;;;17.14;90.37;100117.72;4966241;28;46059;-66
2022/10/15 08:04:02;;;;;;;;;0.25;0.25;;;;;17.16;90.48;100117.47;4986925;28;45820;-64
2022/10/15 08:06:28;;;;;;;;;1.75;0.00;;;;;17.00;90.21;100097.13;4988912;28;45382;-63
2022/10/15 08:08:53;;;;;;;;;0.00;0.00;;;;;17.17;90.03;100131.06;4985493;28;45683;-66
2022/10/15 08:11:19;;;;;;;;;0.00;0.00;;;;;16.98;90.95;100099.34;4988231;28;46064;-65
2022/10/15 08:13:45;;;;;;;;;0.00;0.00;;;;;16.96;90.22;100096.03;4988974;28;45825;-69
2022/10/15 08:16:12;;;;;;;;;0.00;0.00;;;;;17.18;89.34;100131.91;4971103;28;45778;-64
2022/10/15 08:18:38;;;;;;;;;0.00;0.00;;;;;17.20;88.69;100118.59;4985976;28;46283;-67
2022/10/15 08:21:05;;;;;;;;;0.00;0.00;;;;;17.27;88.77;100121.94;4977894;28;45991;-67
2022/10/15 08:23:31;;;;;;;;;0.40;0.00;;;;;17.32;88.65;100126.69;4974481;28;45486;-63
2022/10/15 08:25:58;;;;;;;;;0.00;0.00;;;;;17.34;88.40;100125.31;4983803;28;45779;-67
2022/10/15 08:28:23;;;;;;;;;0.00;0.00;;;;;17.38;88.39;100125.59;4990298;28;45751;-67
2022/10/15 08:30:49;;;;;;;;;0.00;0.00;;;;;17.36;87.86;100127.81;4988654;28;46798;-66
2022/10/15 08:33:14;;;;;;;;;0.00;0.00;;;;;17.35;87.47;100117.81;4989101;28;45462;-66
2022/10/15 08:35:42;;;;;;;;;1.00;1.00;;;;;17.37;87.72;100117.53;4990777;28;45770;-67
2022/10/15 08:38:08;;;;;;;;;0.80;0.80;;;;;17.39;87.40;100126.44;4988374;28;45512;-66
2022/10/15 08:40:34;;;;;;;;;0.00;0.00;;;;;17.32;86.62;100135.00;4985499;28;46787;-67
2022/10/15 08:42:59;;;;;;;;;1.75;1.75;;;;;17.36;86.55;100133.34;4990562;28;45457;-67
2022/10/15 08:45:35;;;;;;;;;1.00;1.00;;;;;17.33;86.29;100136.66;4987449;28;45462;-67
2022/10/15 08:48:11;;;;;;;;;3.40;2.20;;;;;17.37;86.27;100146.13;4957998;28;45808;-68
2022/10/15 08:50:46;;;;;;;;;1.40;0.40;;;;;17.43;86.15;100147.81;4972999;28;46442;-67
2022/10/15 08:53:13;;;;;;;;;3.20;0.20;;;;;17.47;85.94;100146.13;4988404;28;45483;-67
2022/10/15 08:55:40;;;;;;;;;0.00;0.00;;;;;17.50;85.55;100144.75;4969555;28;45544;-67
2022/10/15 08:58:29;;;;;;;;;1.20;1.20;;;;;17.54;85.46;100151.44;4968310;28;45716;-68
2022/10/15 09:01:07;;;;;;;;;0.80;0.80;;;;;17.35;85.04;100115.06;4959773;28;47386;-68
2022/10/15 09:03:41;;;;;;;;;0.00;0.00;;;;;17.60;84.29;100149.50;4954287;28;45771;-64
2022/10/15 09:06:12;;;;;;;;;1.80;1.40;;;;;17.68;84.41;100151.75;4989427;28;45684;-65
2022/10/15 09:08:58;;;;;;;;;1.00;1.00;;;;;17.71;84.45;100155.91;4988322;28;45375;-66
2022/10/15 09:11:58;;;;;;;;;0.40;0.40;;;;;17.69;84.05;100170.06;4972980;28;48310;-66
2022/10/15 09:14:27;;;;;;;;;1.00;0.00;;;;;17.70;83.92;100168.97;4990236;28;45492;-67
2022/10/15 09:16:52;;;;;;;;;1.40;0.20;;;;;17.66;84.12;100147.59;4988440;28;45858;-65
2022/10/15 09:19:20;;;;;;;;;0.00;0.00;;;;;17.77;83.89;100176.19;4990201;28;45895;-65
2022/10/15 09:21:46;;;;;;;;;2.00;0.00;;;;;17.77;83.59;100157.56;4987973;28;45508;-64
2022/10/15 09:24:14;;;;;;;;;1.20;1.20;;;;;17.71;83.58;100148.41;4989082;28;45414;-65
2022/10/15 09:26:49;;;;;;;;;0.00;0.00;;;;;17.96;83.20;100176.47;4988909;28;45388;-65
2022/10/15 09:29:17;;;;;;;;;1.00;0.00;;;;;17.98;82.98;100175.09;4989237;28;45924;-67
2022/10/15 09:32:08;;;;;;;;;0.00;0.00;;;;;17.91;82.60;100182.03;4990362;28;45584;-68
2022/10/15 09:34:49;;;;;;;;;0.00;0.00;;;;;17.31;81.99;100081.50;4985275;28;45743;-68
2022/10/15 09:37:25;;;;;;;;;0.80;0.80;;;;;18.00;81.31;100188.72;4988293;28;45426;-67
2022/10/15 09:40:16;;;;;;;;;0.60;0.60;;;;;18.09;81.20;100184.31;4974081;28;45805;-64
2022/10/15 09:42:41;;;;;;;;;0.00;0.00;;;;;18.20;80.68;100181.53;4990224;28;45548;-66
2022/10/15 09:45:12;;;;;;;;;1.25;0.00;;;;;18.21;80.07;100192.38;4988197;28;45442;-65
2022/10/15 09:47:38;;;;;;;;;0.80;0.80;;;;;18.28;80.16;100192.94;4979351;28;45510;-65
2022/10/15 09:50:07;;;;;;;;;0.00;0.00;;;;;18.36;79.90;100199.88;4953423;28;45420;-65
2022/10/15 09:53:07;;;;;;;;;1.00;1.00;;;;;18.36;79.46;100201.84;4953161;28;47543;-71
2022/10/15 09:55:49;;;;;;;;;0.20;0.20;;;;;18.21;79.44;100167.41;4944516;28;45316;-64
2022/10/15 09:58:27;;;;;;;;;0.40;0.40;;;;;18.55;78.41;100202.09;4953867;28;45450;-62
2022/10/15 10:00:58;;;;;;;;;0.00;0.00;;;;;18.55;78.44;100214.06;4968774;28;45406;-62
2022/10/15 10:03:26;;;;;;;;;0.00;0.00;;;;;18.55;78.38;100224.31;4970105;28;45572;-63
2022/10/15 10:06:03;;;;;;;;;1.80;1.80;;;;;18.63;78.16;100236.84;4968904;28;45425;-63
2022/10/15 10:08:33;;;;;;;;;1.00;0.00;;;;;18.68;77.26;100237.66;4952661;28;45948;-62
2022/10/15 10:11:00;;;;;;;;;0.00;0.00;;;;;18.48;77.02;100209.88;4967523;28;45501;-63
2022/10/15 10:13:31;;;;;;;;;1.80;0.40;;;;;18.77;77.06;100237.09;4951649;28;45389;-66
2022/10/15 10:16:01;;;;;;;;;0.60;0.60;;;;;18.85;76.46;100236.53;4968529;28;45873;-65
2022/10/15 10:18:27;;;;;;;;;0.20;0.20;;;;;19.01;76.08;100236.50;4969958;28;45474;-66
2022/10/15 10:20:57;;;;;;;;;0.50;0.50;;;;;18.86;74.49;100218.75;4966519;28;45417;-60
2022/10/15 10:23:24;;;;;;;;;1.00;1.00;;;;;19.10;74.92;100243.19;4968139;28;46009;-62
2022/10/15 10:25:50;;;;;;;;;0.80;0.80;;;;;19.07;72.50;100207.59;4968288;28;45997;-64
2022/10/15 10:28:25;;;;;;;;;0.25;0.25;;;;;19.34;72.77;100248.13;4970594;28;45691;-66
2022/10/15 10:30:59;;;;;;;;;0.00;0.00;;;;;19.33;71.98;100255.63;4955257;28;45673;-64
2022/10/15 10:33:29;;;;;;;;;0.00;0.00;;;;;19.32;71.08;100253.16;4971577;28;45701;-66
2022/10/15 10:35:55;;;;;;;;;0.00;0.00;;;;;19.30;71.43;100249.78;4971187;28;45952;-66
2022/10/15 10:38:26;;;;;;;;;0.25;0.25;;;;;19.24;72.22;100251.78;4971497;28;45735;-65
2022/10/15 10:40:56;;;;;;;;;0.00;0.00;;;;;19.26;71.05;100243.97;4921725;28;45677;-66
2022/10/15 10:43:28;;;;;;;;;0.80;0.80;;;;;19.49;71.21;100261.16;4954696;28;45987;-64
2022/10/15 10:45:59;;;;;;;;;0.00;0.00;;;;;19.59;69.88;100252.75;4970336;28;45428;-64
2022/10/15 10:48:38;;;;;;;;;0.00;0.00;;;;;19.58;69.90;100251.09;4971507;28;45633;-65
2022/10/15 10:51:12;;;;;;;;;1.00;1.00;;;;;19.68;70.14;100243.84;4971591;28;45854;-65
2022/10/15 10:53:54;;;;;;;;;0.60;0.60;;;;;19.64;69.79;100249.13;4971775;28;46098;-66
2022/10/15 10:56:29;;;;;;;;;0.80;0.00;;;;;19.51;68.64;100219.97;4969593;28;49904;-62
2022/10/15 10:58:58;;;;;;;;;0.00;0.00;;;;;19.73;68.98;100257.69;4969189;28;45948;-67
2022/10/15 11:01:23;;;;;;;;;0.20;0.20;;;;;19.69;69.17;100262.19;4955966;28;45643;-66
2022/10/15 11:03:50;;;;;;;;;0.00;0.00;;;;;19.52;69.48;100273.69;4971417;28;45732;-67
2022/10/15 11:06:31;;;;;;;;;2.00;0.60;;;;;19.04;69.19;100231.25;4963188;28;45841;-69
2022/10/15 11:09:15;;;;;;;;;0.00;0.00;;;;;19.25;69.29;100281.25;4972696;28;45445;-68
2022/10/15 11:11:54;;;;;;;;;0.60;0.60;;;;;19.25;68.95;100277.66;4971192;28;45855;-66
2022/10/15 11:14:57;;;;;;;;;0.00;0.00;;;;;19.19;70.10;100285.16;4950761;28;46989;-66
2022/10/15 11:18:01;;;;;;;;;1.00;0.00;;;;;19.09;71.15;100277.66;4970640;28;45556;-64
2022/10/15 11:20:56;;;;;;;;;2.00;0.00;;;;;19.25;71.72;100295.16;4970998;28;45481;-67
2022/10/15 11:23:54;;;;;;;;;0.00;0.00;;;;;19.34;70.91;100292.66;4975168;28;45338;-63
2022/10/15 11:26:37;;;;;;;;;1.40;1.00;;;;;19.20;71.65;100304.34;4973695;28;45714;-63
2022/10/15 11:29:28;;;;;;;;;0.20;0.20;;;;;20.11;70.18;100301.84;4972954;28;45486;-63
2022/10/15 11:32:17;;;;;;;;;0.40;0.40;;;;;20.57;65.66;100286.75;4975447;28;45385;-62
2022/10/15 11:34:47;;;;;;;;;0.00;0.00;;;;;22.52;59.26;100281.19;4975960;28;45688;-61
2022/10/15 11:37:19;;;;;;;;;0.00;0.00;;;;;22.79;55.60;100281.63;4974532;28;46654;-62